sensor_id;sensor_type;location;lat;lon;timestamp;temperature;humidity
8475;DHT22;4274;52.012;8.448;2022-12-20T00:01:20;7.30;99.90
8475;DHT22;4274;52.012;8.448;2022-12-20T00:03:49;7.30;99.90
8475;DHT22;4274;52.012;8.448;2022-12-20T00:06:15;7.20;99.90
8475;DHT22;4274;52.012;8.448;2022-12-20T00:08:41;7.20;99.90
8475;DHT22;4274;52.012;8.448;2022-12-20T00:11:08;7.20;99.90
8475;DHT22;4274;52.012;8.448;2022-12-20T00:13:34;7.10;99.90
8475;DHT22;4274;52.012;8.448;2022-12-20T00:16:15;7.10;99.90
8475;DHT22;4274;52.012;8.448;2022-12-20T00:18:41;7.10;99.90
8475;DHT22;4274;52.012;8.448;2022-12-20T00:21:09;7.20;99.90
8475;DHT22;4274;52.012;8.448;2022-12-20T00:23:36;7.30;99.90
8475;DHT22;4274;52.012;8.448;2022-12-20T00:26:12;7.40;99.90
8475;DHT22;4274;52.012;8.448;2022-12-20T00:28:38;7.40;99.90
8475;DHT22;4274;52.012;8.448;2022-12-20T00:31:05;7.50;99.90
8475;DHT22;4274;52.012;8.448;2022-12-20T00:33:32;7.60;99.90
8475;DHT22;4274;52.012;8.448;2022-12-20T00:35:57;7.60;99.90
8475;DHT22;4274;52.012;8.448;2022-12-20T00:38:24;7.60;99.90
8475;DHT22;4274;52.012;8.448;2022-12-20T00:41:05;7.60;99.90
8475;DHT22;4274;52.012;8.448;2022-12-20T00:43:32;7.70;99.90
8475;DHT22;4274;52.012;8.448;2022-12-20T00:45:58;7.70;99.90
8475;DHT22;4274;52.012;8.448;2022-12-20T00:48:25;7.70;99.90
8475;DHT22;4274;52.012;8.448;2022-12-20T00:50:51;7.80;99.90
8475;DHT22;4274;52.012;8.448;2022-12-20T00:53:17;7.80;99.90
8475;DHT22;4274;52.012;8.448;2022-12-20T00:55:44;7.90;99.90
8475;DHT22;4274;52.012;8.448;2022-12-20T00:58:10;7.90;99.90
8475;DHT22;4274;52.012;8.448;2022-12-20T01:00:37;7.90;99.90
8475;DHT22;4274;52.012;8.448;2022-12-20T01:03:03;7.90;99.90
8475;DHT22;4274;52.012;8.448;2022-12-20T01:05:29;7.90;99.90
8475;DHT22;4274;52.012;8.448;2022-12-20T01:07:54;7.90;99.90
8475;DHT22;4274;52.012;8.448;2022-12-20T01:10:20;7.90;99.90
8475;DHT22;4274;52.012;8.448;2022-12-20T01:12:46;7.90;99.90
8475;DHT22;4274;52.012;8.448;2022-12-20T01:15:12;7.90;99.90
8475;DHT22;4274;52.012;8.448;2022-12-20T01:17:37;8.00;99.90
8475;DHT22;4274;52.012;8.448;2022-12-20T01:20:04;8.10;99.90
8475;DHT22;4274;52.012;8.448;2022-12-20T01:22:30;8.10;99.90
8475;DHT22;4274;52.012;8.448;2022-12-20T01:24:55;8.10;99.90
8475;DHT22;4274;52.012;8.448;2022-12-20T01:27:21;8.10;99.90
8475;DHT22;4274;52.012;8.448;2022-12-20T01:29:46;8.20;99.90
8475;DHT22;4274;52.012;8.448;2022-12-20T01:32:12;8.20;99.90
8475;DHT22;4274;52.012;8.448;2022-12-20T01:34:37;8.20;99.90
8475;DHT22;4274;52.012;8.448;2022-12-20T01:37:03;8.20;99.90
8475;DHT22;4274;52.012;8.448;2022-12-20T01:39:29;8.20;99.90
8475;DHT22;4274;52.012;8.448;2022-12-20T01:41:54;8.30;99.90
8475;DHT22;4274;52.012;8.448;2022-12-20T01:46:48;8.20;99.90
8475;DHT22;4274;52.012;8.448;2022-12-20T01:49:29;8.30;99.90
8475;DHT22;4274;52.012;8.448;2022-12-20T01:51:58;8.30;99.90
8475;DHT22;4274;52.012;8.448;2022-12-20T01:54:28;8.30;99.90
8475;DHT22;4274;52.012;8.448;2022-12-20T01:57:10;8.40;99.90
8475;DHT22;4274;52.012;8.448;2022-12-20T01:59:38;8.40;99.90
8475;DHT22;4274;52.012;8.448;2022-12-20T02:02:09;8.50;99.90
8475;DHT22;4274;52.012;8.448;2022-12-20T02:04:35;8.50;99.90
8475;DHT22;4274;52.012;8.448;2022-12-20T02:07:01;8.60;99.90
8475;DHT22;4274;52.012;8.448;2022-12-20T02:09:28;8.60;99.90
8475;DHT22;4274;52.012;8.448;2022-12-20T02:12:22;8.70;99.90
8475;DHT22;4274;52.012;8.448;2022-12-20T02:18:06;8.80;99.90
8475;DHT22;4274;52.012;8.448;2022-12-20T02:32:16;8.90;99.90
8475;DHT22;4274;52.012;8.448;2022-12-20T02:34:43;9.00;99.90
8475;DHT22;4274;52.012;8.448;2022-12-20T02:37:10;9.00;99.90
8475;DHT22;4274;52.012;8.448;2022-12-20T02:39:39;9.10;99.90
8475;DHT22;4274;52.012;8.448;2022-12-20T02:42:13;9.10;99.90
8475;DHT22;4274;52.012;8.448;2022-12-20T02:44:43;9.10;99.90
8475;DHT22;4274;52.012;8.448;2022-12-20T02:47:33;9.00;99.90
8475;DHT22;4274;52.012;8.448;2022-12-20T02:50:01;9.00;99.90
8475;DHT22;4274;52.012;8.448;2022-12-20T02:52:29;9.00;99.90
8475;DHT22;4274;52.012;8.448;2022-12-20T02:54:56;9.00;99.90
8475;DHT22;4274;52.012;8.448;2022-12-20T02:57:33;9.00;99.90
8475;DHT22;4274;52.012;8.448;2022-12-20T03:00:09;8.90;99.90
8475;DHT22;4274;52.012;8.448;2022-12-20T03:02:36;9.00;99.90
8475;DHT22;4274;52.012;8.448;2022-12-20T03:05:23;9.00;99.90
8475;DHT22;4274;52.012;8.448;2022-12-20T03:07:50;9.00;99.90
8475;DHT22;4274;52.012;8.448;2022-12-20T03:10:17;9.00;99.90
8475;DHT22;4274;52.012;8.448;2022-12-20T03:12:42;9.00;99.90
8475;DHT22;4274;52.012;8.448;2022-12-20T03:15:09;9.00;99.90
8475;DHT22;4274;52.012;8.448;2022-12-20T03:17:35;9.00;99.90
8475;DHT22;4274;52.012;8.448;2022-12-20T03:20:00;9.00;99.90
8475;DHT22;4274;52.012;8.448;2022-12-20T03:22:26;9.00;99.90
8475;DHT22;4274;52.012;8.448;2022-12-20T03:24:52;9.00;99.90
8475;DHT22;4274;52.012;8.448;2022-12-20T03:27:17;9.10;99.90
8475;DHT22;4274;52.012;8.448;2022-12-20T03:29:43;9.10;99.90
8475;DHT22;4274;52.012;8.448;2022-12-20T03:32:10;9.10;99.90
8475;DHT22;4274;52.012;8.448;2022-12-20T03:34:36;9.10;99.90
8475;DHT22;4274;52.012;8.448;2022-12-20T03:37:01;9.10;99.90
8475;DHT22;4274;52.012;8.448;2022-12-20T03:39:27;9.10;99.90
8475;DHT22;4274;52.012;8.448;2022-12-20T03:41:52;9.00;99.90
8475;DHT22;4274;52.012;8.448;2022-12-20T03:44:18;8.90;99.90
8475;DHT22;4274;52.012;8.448;2022-12-20T03:46:44;8.90;99.90
8475;DHT22;4274;52.012;8.448;2022-12-20T03:49:09;9.00;99.90
8475;DHT22;4274;52.012;8.448;2022-12-20T03:51:35;9.00;99.90
8475;DHT22;4274;52.012;8.448;2022-12-20T03:54:00;9.00;99.90
8475;DHT22;4274;52.012;8.448;2022-12-20T03:56:26;9.00;99.90
8475;DHT22;4274;52.012;8.448;2022-12-20T03:58:51;9.00;99.90
8475;DHT22;4274;52.012;8.448;2022-12-20T04:01:21;9.00;99.90
8475;DHT22;4274;52.012;8.448;2022-12-20T04:03:48;9.00;99.90
8475;DHT22;4274;52.012;8.448;2022-12-20T04:06:14;9.00;99.90
8475;DHT22;4274;52.012;8.448;2022-12-20T04:08:39;9.10;99.90
8475;DHT22;4274;52.012;8.448;2022-12-20T04:11:05;9.10;99.90
8475;DHT22;4274;52.012;8.448;2022-12-20T04:13:47;9.10;99.90
8475;DHT22;4274;52.012;8.448;2022-12-20T04:16:14;9.10;99.90
8475;DHT22;4274;52.012;8.448;2022-12-20T04:18:41;9.10;99.90
8475;DHT22;4274;52.012;8.448;2022-12-20T04:21:09;9.10;99.90
8475;DHT22;4274;52.012;8.448;2022-12-20T04:23:37;9.00;99.90
8475;DHT22;4274;52.012;8.448;2022-12-20T04:26:05;9.00;99.90
8475;DHT22;4274;52.012;8.448;2022-12-20T04:28:31;8.90;99.90
8475;DHT22;4274;52.012;8.448;2022-12-20T04:30:57;8.90;99.90
8475;DHT22;4274;52.012;8.448;2022-12-20T04:33:23;8.80;99.90
8475;DHT22;4274;52.012;8.448;2022-12-20T04:35:48;8.80;99.90
8475;DHT22;4274;52.012;8.448;2022-12-20T04:38:14;8.70;99.90
8475;DHT22;4274;52.012;8.448;2022-12-20T04:40:40;8.70;99.90
8475;DHT22;4274;52.012;8.448;2022-12-20T04:43:06;8.60;99.90
8475;DHT22;4274;52.012;8.448;2022-12-20T04:45:32;8.60;99.90
8475;DHT22;4274;52.012;8.448;2022-12-20T04:47:58;8.60;99.90
8475;DHT22;4274;52.012;8.448;2022-12-20T04:50:24;8.60;99.90
8475;DHT22;4274;52.012;8.448;2022-12-20T04:52:49;8.60;99.90
8475;DHT22;4274;52.012;8.448;2022-12-20T04:55:38;8.50;99.90
8475;DHT22;4274;52.012;8.448;2022-12-20T04:58:04;8.40;99.90
8475;DHT22;4274;52.012;8.448;2022-12-20T05:00:30;8.40;99.90
8475;DHT22;4274;52.012;8.448;2022-12-20T05:02:56;8.40;99.90
8475;DHT22;4274;52.012;8.448;2022-12-20T05:05:22;8.30;99.90
8475;DHT22;4274;52.012;8.448;2022-12-20T05:07:48;8.30;99.90
8475;DHT22;4274;52.012;8.448;2022-12-20T05:10:13;8.30;99.90
8475;DHT22;4274;52.012;8.448;2022-12-20T05:12:39;8.30;99.90
8475;DHT22;4274;52.012;8.448;2022-12-20T05:15:05;8.30;99.90
8475;DHT22;4274;52.012;8.448;2022-12-20T05:17:32;8.40;99.90
8475;DHT22;4274;52.012;8.448;2022-12-20T05:19:57;8.30;99.90
8475;DHT22;4274;52.012;8.448;2022-12-20T05:22:23;8.30;99.90
8475;DHT22;4274;52.012;8.448;2022-12-20T05:25:09;8.30;99.90
8475;DHT22;4274;52.012;8.448;2022-12-20T05:27:53;8.20;99.90
8475;DHT22;4274;52.012;8.448;2022-12-20T05:30:19;8.20;99.90
8475;DHT22;4274;52.012;8.448;2022-12-20T05:32:45;8.30;99.90
8475;DHT22;4274;52.012;8.448;2022-12-20T05:35:10;8.30;99.90
8475;DHT22;4274;52.012;8.448;2022-12-20T05:37:36;8.30;99.90
8475;DHT22;4274;52.012;8.448;2022-12-20T05:40:02;8.30;99.90
8475;DHT22;4274;52.012;8.448;2022-12-20T05:42:29;8.40;99.90
8475;DHT22;4274;52.012;8.448;2022-12-20T05:44:54;8.40;99.90
8475;DHT22;4274;52.012;8.448;2022-12-20T05:47:20;8.40;99.90
8475;DHT22;4274;52.012;8.448;2022-12-20T05:49:45;8.40;99.90
8475;DHT22;4274;52.012;8.448;2022-12-20T05:52:11;8.40;99.90
8475;DHT22;4274;52.012;8.448;2022-12-20T05:54:36;8.40;99.90
8475;DHT22;4274;52.012;8.448;2022-12-20T05:57:02;8.50;99.90
8475;DHT22;4274;52.012;8.448;2022-12-20T05:59:28;8.50;99.90
8475;DHT22;4274;52.012;8.448;2022-12-20T06:01:53;8.50;99.90
8475;DHT22;4274;52.012;8.448;2022-12-20T06:04:19;8.50;99.90
8475;DHT22;4274;52.012;8.448;2022-12-20T06:06:45;8.50;99.90
8475;DHT22;4274;52.012;8.448;2022-12-20T06:09:10;8.40;99.90
8475;DHT22;4274;52.012;8.448;2022-12-20T06:11:36;8.40;99.90
8475;DHT22;4274;52.012;8.448;2022-12-20T06:14:03;8.40;99.90
8475;DHT22;4274;52.012;8.448;2022-12-20T06:16:28;8.40;99.90
8475;DHT22;4274;52.012;8.448;2022-12-20T06:18:54;8.40;99.90
8475;DHT22;4274;52.012;8.448;2022-12-20T06:21:20;8.30;99.90
8475;DHT22;4274;52.012;8.448;2022-12-20T06:23:46;8.30;99.90
8475;DHT22;4274;52.012;8.448;2022-12-20T06:26:11;8.30;99.90
8475;DHT22;4274;52.012;8.448;2022-12-20T06:28:37;8.30;99.90
8475;DHT22;4274;52.012;8.448;2022-12-20T06:31:09;8.30;99.90
8475;DHT22;4274;52.012;8.448;2022-12-20T06:33:35;8.30;99.90
8475;DHT22;4274;52.012;8.448;2022-12-20T06:36:01;8.30;99.90
8475;DHT22;4274;52.012;8.448;2022-12-20T06:38:27;8.30;99.90
8475;DHT22;4274;52.012;8.448;2022-12-20T06:40:53;8.30;99.90
8475;DHT22;4274;52.012;8.448;2022-12-20T06:43:19;8.30;99.90
8475;DHT22;4274;52.012;8.448;2022-12-20T06:45:44;8.30;99.90
8475;DHT22;4274;52.012;8.448;2022-12-20T06:48:10;8.30;99.90
8475;DHT22;4274;52.012;8.448;2022-12-20T06:50:37;8.30;99.90
8475;DHT22;4274;52.012;8.448;2022-12-20T06:53:02;8.20;99.90
8475;DHT22;4274;52.012;8.448;2022-12-20T06:55:28;8.30;99.90
8475;DHT22;4274;52.012;8.448;2022-12-20T06:57:54;8.30;99.90
8475;DHT22;4274;52.012;8.448;2022-12-20T07:00:21;8.30;99.90
8475;DHT22;4274;52.012;8.448;2022-12-20T07:02:47;8.30;99.90
8475;DHT22;4274;52.012;8.448;2022-12-20T07:05:12;8.30;99.90
8475;DHT22;4274;52.012;8.448;2022-12-20T07:07:38;8.30;99.90
8475;DHT22;4274;52.012;8.448;2022-12-20T07:10:04;8.30;99.90
8475;DHT22;4274;52.012;8.448;2022-12-20T07:12:30;8.30;99.90
8475;DHT22;4274;52.012;8.448;2022-12-20T07:14:56;8.30;99.90
8475;DHT22;4274;52.012;8.448;2022-12-20T07:17:21;8.20;99.90
8475;DHT22;4274;52.012;8.448;2022-12-20T07:19:47;8.20;99.90
8475;DHT22;4274;52.012;8.448;2022-12-20T07:22:12;8.20;99.90
8475;DHT22;4274;52.012;8.448;2022-12-20T07:24:38;8.20;99.90
8475;DHT22;4274;52.012;8.448;2022-12-20T07:27:04;8.20;99.90
8475;DHT22;4274;52.012;8.448;2022-12-20T07:29:29;8.30;99.90
8475;DHT22;4274;52.012;8.448;2022-12-20T07:31:55;8.30;99.90
8475;DHT22;4274;52.012;8.448;2022-12-20T07:34:20;8.30;99.90
8475;DHT22;4274;52.012;8.448;2022-12-20T07:36:46;8.30;99.90
8475;DHT22;4274;52.012;8.448;2022-12-20T07:39:12;8.30;99.90
8475;DHT22;4274;52.012;8.448;2022-12-20T07:41:37;8.20;99.90
8475;DHT22;4274;52.012;8.448;2022-12-20T07:44:03;8.10;99.90
8475;DHT22;4274;52.012;8.448;2022-12-20T07:46:29;8.10;99.90
8475;DHT22;4274;52.012;8.448;2022-12-20T07:48:55;8.00;99.90
8475;DHT22;4274;52.012;8.448;2022-12-20T07:51:27;7.90;99.90
8475;DHT22;4274;52.012;8.448;2022-12-20T07:53:59;7.90;99.90
8475;DHT22;4274;52.012;8.448;2022-12-20T07:56:27;7.90;99.90
8475;DHT22;4274;52.012;8.448;2022-12-20T07:58:54;7.90;99.90
8475;DHT22;4274;52.012;8.448;2022-12-20T08:01:24;7.80;99.90
8475;DHT22;4274;52.012;8.448;2022-12-20T08:03:53;7.80;99.90
8475;DHT22;4274;52.012;8.448;2022-12-20T08:06:20;7.80;99.90
8475;DHT22;4274;52.012;8.448;2022-12-20T08:08:53;7.80;99.90
8475;DHT22;4274;52.012;8.448;2022-12-20T08:11:21;7.80;99.90
8475;DHT22;4274;52.012;8.448;2022-12-20T08:13:49;7.90;99.90
8475;DHT22;4274;52.012;8.448;2022-12-20T08:16:15;7.90;99.90
8475;DHT22;4274;52.012;8.448;2022-12-20T08:18:40;7.90;99.90
8475;DHT22;4274;52.012;8.448;2022-12-20T08:21:06;7.90;99.90
8475;DHT22;4274;52.012;8.448;2022-12-20T08:23:31;8.00;99.90
8475;DHT22;4274;52.012;8.448;2022-12-20T08:26:00;8.00;99.90
8475;DHT22;4274;52.012;8.448;2022-12-20T08:28:25;8.00;99.90
8475;DHT22;4274;52.012;8.448;2022-12-20T08:30:51;8.10;99.90
8475;DHT22;4274;52.012;8.448;2022-12-20T08:33:16;8.00;99.90
8475;DHT22;4274;52.012;8.448;2022-12-20T08:35:42;8.00;99.90
8475;DHT22;4274;52.012;8.448;2022-12-20T08:38:07;8.00;99.90
8475;DHT22;4274;52.012;8.448;2022-12-20T08:40:33;8.10;99.90
8475;DHT22;4274;52.012;8.448;2022-12-20T08:42:58;8.10;99.90
8475;DHT22;4274;52.012;8.448;2022-12-20T08:45:24;8.20;99.90
8475;DHT22;4274;52.012;8.448;2022-12-20T08:47:50;8.20;99.90
8475;DHT22;4274;52.012;8.448;2022-12-20T08:50:15;8.30;99.90
8475;DHT22;4274;52.012;8.448;2022-12-20T08:52:41;8.30;99.90
8475;DHT22;4274;52.012;8.448;2022-12-20T08:55:07;8.40;99.90
8475;DHT22;4274;52.012;8.448;2022-12-20T08:57:32;8.40;99.90
8475;DHT22;4274;52.012;8.448;2022-12-20T08:59:58;8.50;99.90
8475;DHT22;4274;52.012;8.448;2022-12-20T09:02:24;8.50;99.90
8475;DHT22;4274;52.012;8.448;2022-12-20T09:04:49;8.50;99.90
8475;DHT22;4274;52.012;8.448;2022-12-20T09:07:16;8.60;99.90
8475;DHT22;4274;52.012;8.448;2022-12-20T09:09:41;8.60;99.90
8475;DHT22;4274;52.012;8.448;2022-12-20T09:12:07;8.60;99.90
8475;DHT22;4274;52.012;8.448;2022-12-20T09:14:32;8.60;99.90
8475;DHT22;4274;52.012;8.448;2022-12-20T09:16:58;8.70;99.90
8475;DHT22;4274;52.012;8.448;2022-12-20T09:19:24;8.70;99.90
8475;DHT22;4274;52.012;8.448;2022-12-20T09:21:49;8.80;99.90
8475;DHT22;4274;52.012;8.448;2022-12-20T09:24:15;8.90;99.90
8475;DHT22;4274;52.012;8.448;2022-12-20T09:26:41;8.90;99.90
8475;DHT22;4274;52.012;8.448;2022-12-20T09:29:07;9.00;99.90
8475;DHT22;4274;52.012;8.448;2022-12-20T09:31:32;9.10;99.90
8475;DHT22;4274;52.012;8.448;2022-12-20T09:33:58;9.30;99.90
8475;DHT22;4274;52.012;8.448;2022-12-20T09:36:25;9.40;99.90
8475;DHT22;4274;52.012;8.448;2022-12-20T09:38:53;9.50;99.90
8475;DHT22;4274;52.012;8.448;2022-12-20T09:44:09;9.60;99.90
8475;DHT22;4274;52.012;8.448;2022-12-20T09:46:38;9.60;99.90
8475;DHT22;4274;52.012;8.448;2022-12-20T09:49:04;9.60;99.90
8475;DHT22;4274;52.012;8.448;2022-12-20T09:51:55;9.60;99.90
8475;DHT22;4274;52.012;8.448;2022-12-20T09:57:06;9.50;99.90
8475;DHT22;4274;52.012;8.448;2022-12-20T09:59:40;9.60;99.90
8475;DHT22;4274;52.012;8.448;2022-12-20T10:02:19;9.60;99.90
8475;DHT22;4274;52.012;8.448;2022-12-20T10:04:45;9.60;99.90
8475;DHT22;4274;52.012;8.448;2022-12-20T10:07:29;9.50;99.90
8475;DHT22;4274;52.012;8.448;2022-12-20T10:10:26;9.50;99.90
8475;DHT22;4274;52.012;8.448;2022-12-20T10:13:05;9.50;99.90
8475;DHT22;4274;52.012;8.448;2022-12-20T10:15:45;9.50;99.90
8475;DHT22;4274;52.012;8.448;2022-12-20T10:21:14;9.50;99.90
8475;DHT22;4274;52.012;8.448;2022-12-20T10:26:22;9.60;99.90
8475;DHT22;4274;52.012;8.448;2022-12-20T10:28:48;9.60;99.90
8475;DHT22;4274;52.012;8.448;2022-12-20T10:31:16;9.60;99.90
8475;DHT22;4274;52.012;8.448;2022-12-20T10:33:43;9.60;99.90
8475;DHT22;4274;52.012;8.448;2022-12-20T10:36:26;9.60;99.90
8475;DHT22;4274;52.012;8.448;2022-12-20T10:38:58;9.60;99.90
8475;DHT22;4274;52.012;8.448;2022-12-20T10:41:29;9.60;99.90
8475;DHT22;4274;52.012;8.448;2022-12-20T10:44:17;9.60;99.90
8475;DHT22;4274;52.012;8.448;2022-12-20T10:46:57;9.60;99.90
8475;DHT22;4274;52.012;8.448;2022-12-20T10:49:32;9.70;99.90
8475;DHT22;4274;52.012;8.448;2022-12-20T10:54:41;9.70;99.90
8475;DHT22;4274;52.012;8.448;2022-12-20T10:57:27;9.80;99.90
8475;DHT22;4274;52.012;8.448;2022-12-20T10:59:55;9.80;99.90
8475;DHT22;4274;52.012;8.448;2022-12-20T11:02:30;9.80;99.90
8475;DHT22;4274;52.012;8.448;2022-12-20T11:05:02;9.80;99.90
8475;DHT22;4274;52.012;8.448;2022-12-20T11:07:30;9.80;99.90
8475;DHT22;4274;52.012;8.448;2022-12-20T11:09:59;9.90;99.90
8475;DHT22;4274;52.012;8.448;2022-12-20T11:12:25;9.90;99.90
8475;DHT22;4274;52.012;8.448;2022-12-20T11:15:08;9.90;99.90
8475;DHT22;4274;52.012;8.448;2022-12-20T11:17:38;9.90;99.90
8475;DHT22;4274;52.012;8.448;2022-12-20T11:31:31;10.10;99.90
8475;DHT22;4274;52.012;8.448;2022-12-20T11:42:10;10.20;99.90
8475;DHT22;4274;52.012;8.448;2022-12-20T11:44:46;10.20;99.90
8475;DHT22;4274;52.012;8.448;2022-12-20T11:50:33;10.30;99.90
8475;DHT22;4274;52.012;8.448;2022-12-20T11:53:06;10.30;99.90
8475;DHT22;4274;52.012;8.448;2022-12-20T11:55:35;10.30;99.90
8475;DHT22;4274;52.012;8.448;2022-12-20T12:00:37;10.30;99.90
8475;DHT22;4274;52.012;8.448;2022-12-20T12:03:26;10.30;99.90
8475;DHT22;4274;52.012;8.448;2022-12-20T12:05:57;10.30;99.90
8475;DHT22;4274;52.012;8.448;2022-12-20T12:11:00;10.40;99.90
8475;DHT22;4274;52.012;8.448;2022-12-20T12:13:31;10.40;99.90
8475;DHT22;4274;52.012;8.448;2022-12-20T12:16:07;10.40;99.90
8475;DHT22;4274;52.012;8.448;2022-12-20T12:18:35;10.40;99.90
8475;DHT22;4274;52.012;8.448;2022-12-20T12:21:05;10.40;99.90
8475;DHT22;4274;52.012;8.448;2022-12-20T12:26:27;10.40;99.90
8475;DHT22;4274;52.012;8.448;2022-12-20T12:29:16;10.40;99.90
8475;DHT22;4274;52.012;8.448;2022-12-20T12:31:59;10.30;99.90
8475;DHT22;4274;52.012;8.448;2022-12-20T12:37:27;10.20;99.90
8475;DHT22;4274;52.012;8.448;2022-12-20T12:40:08;10.20;99.90
8475;DHT22;4274;52.012;8.448;2022-12-20T12:48:39;10.20;99.90
8475;DHT22;4274;52.012;8.448;2022-12-20T12:51:06;10.10;99.90
8475;DHT22;4274;52.012;8.448;2022-12-20T12:53:41;10.20;99.90
8475;DHT22;4274;52.012;8.448;2022-12-20T13:11:51;10.20;99.90
8475;DHT22;4274;52.012;8.448;2022-12-20T13:16:52;10.20;99.90
8475;DHT22;4274;52.012;8.448;2022-12-20T13:27:01;10.30;99.90
8475;DHT22;4274;52.012;8.448;2022-12-20T13:29:33;10.30;99.90
8475;DHT22;4274;52.012;8.448;2022-12-20T13:31:59;10.30;99.90
8475;DHT22;4274;52.012;8.448;2022-12-20T13:34:36;10.30;99.90
8475;DHT22;4274;52.012;8.448;2022-12-20T13:37:02;10.40;99.90
8475;DHT22;4274;52.012;8.448;2022-12-20T13:39:28;10.40;99.90
8475;DHT22;4274;52.012;8.448;2022-12-20T13:42:25;10.40;99.90
8475;DHT22;4274;52.012;8.448;2022-12-20T13:44:53;10.40;99.90
8475;DHT22;4274;52.012;8.448;2022-12-20T13:47:27;10.50;99.90
8475;DHT22;4274;52.012;8.448;2022-12-20T13:49:59;10.50;99.90
8475;DHT22;4274;52.012;8.448;2022-12-20T13:52:41;10.50;99.90
8475;DHT22;4274;52.012;8.448;2022-12-20T13:55:37;10.60;99.90
8475;DHT22;4274;52.012;8.448;2022-12-20T13:58:14;10.60;99.90
8475;DHT22;4274;52.012;8.448;2022-12-20T14:00:40;10.60;99.90
8475;DHT22;4274;52.012;8.448;2022-12-20T14:03:16;10.70;99.90
8475;DHT22;4274;52.012;8.448;2022-12-20T14:05:43;10.70;99.90
8475;DHT22;4274;52.012;8.448;2022-12-20T14:08:17;10.70;99.90
8475;DHT22;4274;52.012;8.448;2022-12-20T14:10:44;10.80;99.90
8475;DHT22;4274;52.012;8.448;2022-12-20T14:15:44;10.80;99.90
8475;DHT22;4274;52.012;8.448;2022-12-20T14:18:24;10.80;99.90
8475;DHT22;4274;52.012;8.448;2022-12-20T14:20:56;10.80;99.90
8475;DHT22;4274;52.012;8.448;2022-12-20T14:23:34;10.80;99.90
8475;DHT22;4274;52.012;8.448;2022-12-20T14:26:01;10.70;99.90
8475;DHT22;4274;52.012;8.448;2022-12-20T14:28:44;10.70;99.90
8475;DHT22;4274;52.012;8.448;2022-12-20T14:36:36;10.60;99.90
8475;DHT22;4274;52.012;8.448;2022-12-20T14:39:33;10.60;99.90
8475;DHT22;4274;52.012;8.448;2022-12-20T14:42:21;10.70;99.90
8475;DHT22;4274;52.012;8.448;2022-12-20T14:44:46;10.70;99.90
8475;DHT22;4274;52.012;8.448;2022-12-20T14:50:05;10.70;99.90
8475;DHT22;4274;52.012;8.448;2022-12-20T14:52:33;10.60;99.90
8475;DHT22;4274;52.012;8.448;2022-12-20T14:55:03;10.60;99.90
8475;DHT22;4274;52.012;8.448;2022-12-20T14:57:44;10.60;99.90
8475;DHT22;4274;52.012;8.448;2022-12-20T15:00:21;10.60;99.90
8475;DHT22;4274;52.012;8.448;2022-12-20T15:02:51;10.60;99.90
8475;DHT22;4274;52.012;8.448;2022-12-20T15:05:40;10.50;99.90
8475;DHT22;4274;52.012;8.448;2022-12-20T15:08:14;10.60;99.90
8475;DHT22;4274;52.012;8.448;2022-12-20T15:10:41;10.50;99.90
8475;DHT22;4274;52.012;8.448;2022-12-20T15:13:31;10.50;99.90
8475;DHT22;4274;52.012;8.448;2022-12-20T15:15:58;10.50;99.90
8475;DHT22;4274;52.012;8.448;2022-12-20T15:18:24;10.50;99.90
8475;DHT22;4274;52.012;8.448;2022-12-20T15:21:04;10.50;99.90
8475;DHT22;4274;52.012;8.448;2022-12-20T15:23:31;10.40;99.90
8475;DHT22;4274;52.012;8.448;2022-12-20T15:25:56;10.30;99.90
8475;DHT22;4274;52.012;8.448;2022-12-20T15:28:24;10.20;99.90
8475;DHT22;4274;52.012;8.448;2022-12-20T15:30:51;10.10;99.90
8475;DHT22;4274;52.012;8.448;2022-12-20T15:33:23;10.00;99.90
8475;DHT22;4274;52.012;8.448;2022-12-20T15:35:49;9.90;99.90
8475;DHT22;4274;52.012;8.448;2022-12-20T15:38:18;9.90;99.90
8475;DHT22;4274;52.012;8.448;2022-12-20T15:40:46;9.80;99.90
8475;DHT22;4274;52.012;8.448;2022-12-20T15:43:14;9.70;99.90
8475;DHT22;4274;52.012;8.448;2022-12-20T15:45:43;9.80;99.90
8475;DHT22;4274;52.012;8.448;2022-12-20T15:48:14;9.70;99.90
8475;DHT22;4274;52.012;8.448;2022-12-20T15:50:43;9.60;99.90
8475;DHT22;4274;52.012;8.448;2022-12-20T15:53:13;9.60;99.90
8475;DHT22;4274;52.012;8.448;2022-12-20T15:55:39;9.50;99.90
8475;DHT22;4274;52.012;8.448;2022-12-20T15:58:05;9.50;99.90
8475;DHT22;4274;52.012;8.448;2022-12-20T16:00:31;9.50;99.90
8475;DHT22;4274;52.012;8.448;2022-12-20T16:02:56;9.50;99.90
8475;DHT22;4274;52.012;8.448;2022-12-20T16:05:23;9.50;99.90
8475;DHT22;4274;52.012;8.448;2022-12-20T16:07:49;9.40;99.90
8475;DHT22;4274;52.012;8.448;2022-12-20T16:10:14;9.40;99.90
8475;DHT22;4274;52.012;8.448;2022-12-20T16:12:40;9.40;99.90
8475;DHT22;4274;52.012;8.448;2022-12-20T16:15:18;9.30;99.90
8475;DHT22;4274;52.012;8.448;2022-12-20T16:17:44;9.30;99.90
8475;DHT22;4274;52.012;8.448;2022-12-20T16:20:10;9.30;99.90
8475;DHT22;4274;52.012;8.448;2022-12-20T16:22:36;9.30;99.90
8475;DHT22;4274;52.012;8.448;2022-12-20T16:25:02;9.30;99.90
8475;DHT22;4274;52.012;8.448;2022-12-20T16:27:27;9.20;99.90
8475;DHT22;4274;52.012;8.448;2022-12-20T16:29:53;9.20;99.90
8475;DHT22;4274;52.012;8.448;2022-12-20T16:32:20;9.20;99.90
8475;DHT22;4274;52.012;8.448;2022-12-20T16:34:49;9.20;99.90
8475;DHT22;4274;52.012;8.448;2022-12-20T16:37:15;9.20;99.90
8475;DHT22;4274;52.012;8.448;2022-12-20T16:39:41;9.20;99.90
8475;DHT22;4274;52.012;8.448;2022-12-20T16:42:14;9.10;99.90
8475;DHT22;4274;52.012;8.448;2022-12-20T16:44:41;9.10;99.90
8475;DHT22;4274;52.012;8.448;2022-12-20T16:47:09;9.10;99.90
8475;DHT22;4274;52.012;8.448;2022-12-20T16:49:34;9.10;99.90
8475;DHT22;4274;52.012;8.448;2022-12-20T16:52:02;9.10;99.90
8475;DHT22;4274;52.012;8.448;2022-12-20T16:54:29;9.10;99.90
8475;DHT22;4274;52.012;8.448;2022-12-20T16:56:54;9.10;99.90
8475;DHT22;4274;52.012;8.448;2022-12-20T16:59:24;9.10;99.90
8475;DHT22;4274;52.012;8.448;2022-12-20T17:01:55;9.10;99.90
8475;DHT22;4274;52.012;8.448;2022-12-20T17:04:21;9.00;99.90
8475;DHT22;4274;52.012;8.448;2022-12-20T17:06:47;9.00;99.90
8475;DHT22;4274;52.012;8.448;2022-12-20T17:09:13;9.00;99.90
8475;DHT22;4274;52.012;8.448;2022-12-20T17:11:40;9.00;99.90
8475;DHT22;4274;52.012;8.448;2022-12-20T17:14:06;8.90;99.90
8475;DHT22;4274;52.012;8.448;2022-12-20T17:16:32;8.90;99.90
8475;DHT22;4274;52.012;8.448;2022-12-20T17:18:57;8.90;99.90
8475;DHT22;4274;52.012;8.448;2022-12-20T17:23:51;8.90;99.90
8475;DHT22;4274;52.012;8.448;2022-12-20T17:26:21;8.90;99.90
8475;DHT22;4274;52.012;8.448;2022-12-20T17:28:48;8.90;99.90
8475;DHT22;4274;52.012;8.448;2022-12-20T17:31:30;8.80;99.90
8475;DHT22;4274;52.012;8.448;2022-12-20T17:34:01;8.80;99.90
8475;DHT22;4274;52.012;8.448;2022-12-20T17:36:28;8.80;99.90
8475;DHT22;4274;52.012;8.448;2022-12-20T17:38:53;8.80;99.90
8475;DHT22;4274;52.012;8.448;2022-12-20T17:41:27;8.80;99.90
8475;DHT22;4274;52.012;8.448;2022-12-20T17:43:57;8.80;99.90
8475;DHT22;4274;52.012;8.448;2022-12-20T17:46:24;8.80;99.90
8475;DHT22;4274;52.012;8.448;2022-12-20T17:48:50;8.80;99.90
8475;DHT22;4274;52.012;8.448;2022-12-20T17:51:20;8.80;99.90
8475;DHT22;4274;52.012;8.448;2022-12-20T17:53:48;8.80;99.90
8475;DHT22;4274;52.012;8.448;2022-12-20T17:56:16;8.80;99.90
8475;DHT22;4274;52.012;8.448;2022-12-20T17:58:43;8.70;99.90
8475;DHT22;4274;52.012;8.448;2022-12-20T18:01:20;8.70;99.90
8475;DHT22;4274;52.012;8.448;2022-12-20T18:03:47;8.70;99.90
8475;DHT22;4274;52.012;8.448;2022-12-20T18:06:13;8.70;99.90
8475;DHT22;4274;52.012;8.448;2022-12-20T18:08:39;8.70;99.90
8475;DHT22;4274;52.012;8.448;2022-12-20T18:11:06;8.70;99.90
8475;DHT22;4274;52.012;8.448;2022-12-20T18:13:31;8.70;99.90
8475;DHT22;4274;52.012;8.448;2022-12-20T18:15:57;8.70;99.90